sensor_id;sensor_type;location;lat;lon;timestamp;P1;P2;P0
72793;PMS5003;63436;26.334;50.194;2022-12-05T00:00:55;43;42;
72793;PMS5003;63436;26.334;50.194;2022-12-05T00:03:22;43;42;
72793;PMS5003;63436;26.334;50.194;2022-12-05T00:05:46;43;43;
72793;PMS5003;63436;26.334;50.194;2022-12-05T00:08:16;40;39;
72793;PMS5003;63436;26.334;50.194;2022-12-05T00:10:37;52;43;
72793;PMS5003;63436;26.334;50.194;2022-12-05T00:13:02;40;39;
72793;PMS5003;63436;26.334;50.194;2022-12-05T00:15:28;51;47;
72793;PMS5003;63436;26.334;50.194;2022-12-05T00:17:53;50;46;
72793;PMS5003;63436;26.334;50.194;2022-12-05T00:20:18;51;47;
72793;PMS5003;63436;26.334;50.194;2022-12-05T00:22:44;45;42;
72793;PMS5003;63436;26.334;50.194;2022-12-05T00:25:08;53;48;
72793;PMS5003;63436;26.334;50.194;2022-12-05T00:27:36;43;42;
72793;PMS5003;63436;26.334;50.194;2022-12-05T00:30:04;44;44;
72793;PMS5003;63436;26.334;50.194;2022-12-05T00:32:27;45;43;
72793;PMS5003;63436;26.334;50.194;2022-12-05T00:34:50;46;43;
72793;PMS5003;63436;26.334;50.194;2022-12-05T00:37:16;47;46;
72793;PMS5003;63436;26.334;50.194;2022-12-05T00:39:42;52;45;
72793;PMS5003;63436;26.334;50.194;2022-12-05T00:42:07;50;47;
72793;PMS5003;63436;26.334;50.194;2022-12-05T00:44:32;50;47;
72793;PMS5003;63436;26.334;50.194;2022-12-05T00:46:57;46;42;
72793;PMS5003;63436;26.334;50.194;2022-12-05T00:49:22;52;45;
72793;PMS5003;63436;26.334;50.194;2022-12-05T00:51:48;44;43;
72793;PMS5003;63436;26.334;50.194;2022-12-05T00:54:14;45;42;
72793;PMS5003;63436;26.334;50.194;2022-12-05T00:56:38;41;40;
72793;PMS5003;63436;26.334;50.194;2022-12-05T00:59:05;45;42;
72793;PMS5003;63436;26.334;50.194;2022-12-05T01:01:30;43;43;
72793;PMS5003;63436;26.334;50.194;2022-12-05T01:03:56;45;41;
72793;PMS5003;63436;26.334;50.194;2022-12-05T01:06:21;51;49;
72793;PMS5003;63436;26.334;50.194;2022-12-05T01:08:46;41;41;
72793;PMS5003;63436;26.334;50.194;2022-12-05T01:11:13;47;42;
72793;PMS5003;63436;26.334;50.194;2022-12-05T01:13:37;43;43;
72793;PMS5003;63436;26.334;50.194;2022-12-05T01:16:02;51;49;
72793;PMS5003;63436;26.334;50.194;2022-12-05T01:18:28;46;43;
72793;PMS5003;63436;26.334;50.194;2022-12-05T01:20:53;48;43;
72793;PMS5003;63436;26.334;50.194;2022-12-05T01:23:18;47;44;
72793;PMS5003;63436;26.334;50.194;2022-12-05T01:25:45;49;46;
72793;PMS5003;63436;26.334;50.194;2022-12-05T01:28:09;53;51;
72793;PMS5003;63436;26.334;50.194;2022-12-05T01:30:36;51;48;
72793;PMS5003;63436;26.334;50.194;2022-12-05T01:32:59;54;52;
72793;PMS5003;63436;26.334;50.194;2022-12-05T01:35:24;49;46;
72793;PMS5003;63436;26.334;50.194;2022-12-05T01:37:50;53;51;
72793;PMS5003;63436;26.334;50.194;2022-12-05T01:40:15;51;50;
72793;PMS5003;63436;26.334;50.194;2022-12-05T01:42:40;46;46;
72793;PMS5003;63436;26.334;50.194;2022-12-05T01:45:09;52;48;
72793;PMS5003;63436;26.334;50.194;2022-12-05T01:47:31;58;53;
72793;PMS5003;63436;26.334;50.194;2022-12-05T01:49:57;44;44;
72793;PMS5003;63436;26.334;50.194;2022-12-05T01:52:24;49;46;
72793;PMS5003;63436;26.334;50.194;2022-12-05T01:54:48;51;46;
72793;PMS5003;63436;26.334;50.194;2022-12-05T01:57:13;49;49;
72793;PMS5003;63436;26.334;50.194;2022-12-05T01:59:39;48;48;
72793;PMS5003;63436;26.334;50.194;2022-12-05T02:02:03;54;51;
72793;PMS5003;63436;26.334;50.194;2022-12-05T02:04:29;55;53;
72793;PMS5003;63436;26.334;50.194;2022-12-05T02:06:54;57;53;
72793;PMS5003;63436;26.334;50.194;2022-12-05T02:09:20;59;57;
72793;PMS5003;63436;26.334;50.194;2022-12-05T02:11:46;56;53;
72793;PMS5003;63436;26.334;50.194;2022-12-05T02:14:14;55;49;
72793;PMS5003;63436;26.334;50.194;2022-12-05T02:16:40;56;52;
72793;PMS5003;63436;26.334;50.194;2022-12-05T02:19:03;50;48;
72793;PMS5003;63436;26.334;50.194;2022-12-05T02:21:33;52;51;
72793;PMS5003;63436;26.334;50.194;2022-12-05T02:23:58;59;58;
72793;PMS5003;63436;26.334;50.194;2022-12-05T02:28:52;53;50;
72793;PMS5003;63436;26.334;50.194;2022-12-05T02:31:09;49;48;
72793;PMS5003;63436;26.334;50.194;2022-12-05T02:33:35;52;47;
72793;PMS5003;63436;26.334;50.194;2022-12-05T02:36:01;55;53;
72793;PMS5003;63436;26.334;50.194;2022-12-05T02:38:26;63;56;
72793;PMS5003;63436;26.334;50.194;2022-12-05T02:40:53;62;57;
72793;PMS5003;63436;26.334;50.194;2022-12-05T02:43:17;53;53;
72793;PMS5003;63436;26.334;50.194;2022-12-05T02:45:41;52;49;
72793;PMS5003;63436;26.334;50.194;2022-12-05T02:48:07;51;51;
72793;PMS5003;63436;26.334;50.194;2022-12-05T02:50:32;58;52;
72793;PMS5003;63436;26.334;50.194;2022-12-05T02:52:58;49;48;
72793;PMS5003;63436;26.334;50.194;2022-12-05T02:55:23;53;52;
72793;PMS5003;63436;26.334;50.194;2022-12-05T02:57:49;53;51;
72793;PMS5003;63436;26.334;50.194;2022-12-05T03:00:14;55;52;
72793;PMS5003;63436;26.334;50.194;2022-12-05T03:02:39;54;53;
72793;PMS5003;63436;26.334;50.194;2022-12-05T03:05:07;55;49;
72793;PMS5003;63436;26.334;50.194;2022-12-05T03:07:30;51;49;
72793;PMS5003;63436;26.334;50.194;2022-12-05T03:09:56;53;50;
72793;PMS5003;63436;26.334;50.194;2022-12-05T03:12:21;55;48;
72793;PMS5003;63436;26.334;50.194;2022-12-05T03:14:47;66;64;
72793;PMS5003;63436;26.334;50.194;2022-12-05T03:17:12;58;57;
72793;PMS5003;63436;26.334;50.194;2022-12-05T03:19:40;61;56;
72793;PMS5003;63436;26.334;50.194;2022-12-05T03:22:05;54;51;
72793;PMS5003;63436;26.334;50.194;2022-12-05T03:24:28;66;60;
72793;PMS5003;63436;26.334;50.194;2022-12-05T03:26:55;63;57;
72793;PMS5003;63436;26.334;50.194;2022-12-05T03:29:21;65;53;
72793;PMS5003;63436;26.334;50.194;2022-12-05T03:31:45;61;54;
72793;PMS5003;63436;26.334;50.194;2022-12-05T03:34:11;57;51;
72793;PMS5003;63436;26.334;50.194;2022-12-05T03:36:36;71;62;
72793;PMS5003;63436;26.334;50.194;2022-12-05T03:39:02;54;52;
72793;PMS5003;63436;26.334;50.194;2022-12-05T03:41:28;58;54;
72793;PMS5003;63436;26.334;50.194;2022-12-05T03:43:53;58;48;
72793;PMS5003;63436;26.334;50.194;2022-12-05T03:46:20;52;49;
72793;PMS5003;63436;26.334;50.194;2022-12-05T03:48:45;56;51;
72793;PMS5003;63436;26.334;50.194;2022-12-05T03:51:09;59;52;
72793;PMS5003;63436;26.334;50.194;2022-12-05T03:53:36;54;54;
72793;PMS5003;63436;26.334;50.194;2022-12-05T03:56:01;58;52;
72793;PMS5003;63436;26.334;50.194;2022-12-05T03:58:26;53;50;
72793;PMS5003;63436;26.334;50.194;2022-12-05T04:00:50;60;56;
72793;PMS5003;63436;26.334;50.194;2022-12-05T04:03:16;61;52;
72793;PMS5003;63436;26.334;50.194;2022-12-05T04:05:42;74;60;
72793;PMS5003;63436;26.334;50.194;2022-12-05T04:08:09;55;52;
72793;PMS5003;63436;26.334;50.194;2022-12-05T04:10:33;60;55;
72793;PMS5003;63436;26.334;50.194;2022-12-05T04:12:59;60;56;
72793;PMS5003;63436;26.334;50.194;2022-12-05T04:15:24;54;51;
72793;PMS5003;63436;26.334;50.194;2022-12-05T04:17:49;60;55;
72793;PMS5003;63436;26.334;50.194;2022-12-05T04:20:14;62;54;
72793;PMS5003;63436;26.334;50.194;2022-12-05T04:22:38;55;50;
72793;PMS5003;63436;26.334;50.194;2022-12-05T04:25:05;56;51;
72793;PMS5003;63436;26.334;50.194;2022-12-05T04:27:31;51;50;
72793;PMS5003;63436;26.334;50.194;2022-12-05T04:30:00;57;53;
72793;PMS5003;63436;26.334;50.194;2022-12-05T04:32:21;54;53;
72793;PMS5003;63436;26.334;50.194;2022-12-05T04:34:48;52;50;
72793;PMS5003;63436;26.334;50.194;2022-12-05T04:37:12;52;52;
72793;PMS5003;63436;26.334;50.194;2022-12-05T04:39:39;51;50;
72793;PMS5003;63436;26.334;50.194;2022-12-05T04:42:04;57;52;
72793;PMS5003;63436;26.334;50.194;2022-12-05T04:44:31;55;47;
72793;PMS5003;63436;26.334;50.194;2022-12-05T04:46:54;59;52;
72793;PMS5003;63436;26.334;50.194;2022-12-05T04:49:20;45;44;
72793;PMS5003;63436;26.334;50.194;2022-12-05T04:51:45;59;50;
72793;PMS5003;63436;26.334;50.194;2022-12-05T04:54:11;54;52;
72793;PMS5003;63436;26.334;50.194;2022-12-05T04:56:35;55;51;
72793;PMS5003;63436;26.334;50.194;2022-12-05T04:59:01;49;48;
72793;PMS5003;63436;26.334;50.194;2022-12-05T05:01:27;57;52;
72793;PMS5003;63436;26.334;50.194;2022-12-05T05:03:53;57;52;
72793;PMS5003;63436;26.334;50.194;2022-12-05T05:06:18;63;57;
72793;PMS5003;63436;26.334;50.194;2022-12-05T05:08:47;64;54;
72793;PMS5003;63436;26.334;50.194;2022-12-05T05:11:10;59;53;
72793;PMS5003;63436;26.334;50.194;2022-12-05T05:13:35;59;56;
72793;PMS5003;63436;26.334;50.194;2022-12-05T05:16:00;59;53;
72793;PMS5003;63436;26.334;50.194;2022-12-05T05:18:26;53;47;
72793;PMS5003;63436;26.334;50.194;2022-12-05T05:23:18;49;47;
72793;PMS5003;63436;26.334;50.194;2022-12-05T05:25:41;54;49;
72793;PMS5003;63436;26.334;50.194;2022-12-05T05:28:06;46;45;
72793;PMS5003;63436;26.334;50.194;2022-12-05T05:30:32;46;45;
72793;PMS5003;63436;26.334;50.194;2022-12-05T05:32:58;52;48;
72793;PMS5003;63436;26.334;50.194;2022-12-05T05:35:22;45;44;
72793;PMS5003;63436;26.334;50.194;2022-12-05T05:37:48;47;45;
72793;PMS5003;63436;26.334;50.194;2022-12-05T05:40:14;49;49;
72793;PMS5003;63436;26.334;50.194;2022-12-05T05:42:41;46;46;
72793;PMS5003;63436;26.334;50.194;2022-12-05T05:45:05;50;48;
72793;PMS5003;63436;26.334;50.194;2022-12-05T05:47:29;48;46;
72793;PMS5003;63436;26.334;50.194;2022-12-05T05:49:54;45;44;
72793;PMS5003;63436;26.334;50.194;2022-12-05T05:52:20;45;39;
72793;PMS5003;63436;26.334;50.194;2022-12-05T05:54:45;44;42;
72793;PMS5003;63436;26.334;50.194;2022-12-05T05:57:11;45;40;
72793;PMS5003;63436;26.334;50.194;2022-12-05T05:59:36;41;41;
72793;PMS5003;63436;26.334;50.194;2022-12-05T06:02:01;47;44;
72793;PMS5003;63436;26.334;50.194;2022-12-05T06:04:33;44;38;
72793;PMS5003;63436;26.334;50.194;2022-12-05T06:06:52;45;42;
72793;PMS5003;63436;26.334;50.194;2022-12-05T06:09:17;41;37;
72793;PMS5003;63436;26.334;50.194;2022-12-05T06:11:43;40;37;
72793;PMS5003;63436;26.334;50.194;2022-12-05T06:14:09;44;37;
72793;PMS5003;63436;26.334;50.194;2022-12-05T06:16:34;37;36;
72793;PMS5003;63436;26.334;50.194;2022-12-05T06:18:59;38;35;
72793;PMS5003;63436;26.334;50.194;2022-12-05T06:21:24;41;39;
72793;PMS5003;63436;26.334;50.194;2022-12-05T06:23:49;44;40;
72793;PMS5003;63436;26.334;50.194;2022-12-05T06:26:16;39;39;
72793;PMS5003;63436;26.334;50.194;2022-12-05T06:28:40;43;40;
72793;PMS5003;63436;26.334;50.194;2022-12-05T06:31:06;40;36;
72793;PMS5003;63436;26.334;50.194;2022-12-05T06:33:31;42;39;
72793;PMS5003;63436;26.334;50.194;2022-12-05T06:36:02;42;40;
72793;PMS5003;63436;26.334;50.194;2022-12-05T06:38:21;42;38;
72793;PMS5003;63436;26.334;50.194;2022-12-05T06:40:46;41;38;
72793;PMS5003;63436;26.334;50.194;2022-12-05T06:43:13;42;40;
72793;PMS5003;63436;26.334;50.194;2022-12-05T06:45:37;45;40;
72793;PMS5003;63436;26.334;50.194;2022-12-05T06:48:03;43;41;
72793;PMS5003;63436;26.334;50.194;2022-12-05T06:50:29;42;37;
72793;PMS5003;63436;26.334;50.194;2022-12-05T06:52:53;42;41;
72793;PMS5003;63436;26.334;50.194;2022-12-05T06:55:19;42;42;
72793;PMS5003;63436;26.334;50.194;2022-12-05T06:57:45;40;38;
72793;PMS5003;63436;26.334;50.194;2022-12-05T07:00:11;38;37;
72793;PMS5003;63436;26.334;50.194;2022-12-05T07:02:36;43;40;
72793;PMS5003;63436;26.334;50.194;2022-12-05T07:05:02;38;38;
72793;PMS5003;63436;26.334;50.194;2022-12-05T07:07:28;45;41;
72793;PMS5003;63436;26.334;50.194;2022-12-05T07:09:52;42;39;
72793;PMS5003;63436;26.334;50.194;2022-12-05T07:12:18;37;37;
72793;PMS5003;63436;26.334;50.194;2022-12-05T07:14:44;43;42;
72793;PMS5003;63436;26.334;50.194;2022-12-05T07:17:09;38;38;
72793;PMS5003;63436;26.334;50.194;2022-12-05T07:19:36;40;40;
72793;PMS5003;63436;26.334;50.194;2022-12-05T07:22:00;41;38;
72793;PMS5003;63436;26.334;50.194;2022-12-05T07:24:26;40;38;
72793;PMS5003;63436;26.334;50.194;2022-12-05T07:26:51;43;39;
72793;PMS5003;63436;26.334;50.194;2022-12-05T07:29:16;39;39;
72793;PMS5003;63436;26.334;50.194;2022-12-05T07:31:41;38;37;
72793;PMS5003;63436;26.334;50.194;2022-12-05T07:34:07;45;41;
72793;PMS5003;63436;26.334;50.194;2022-12-05T07:36:32;39;38;
72793;PMS5003;63436;26.334;50.194;2022-12-05T07:38:57;43;39;
72793;PMS5003;63436;26.334;50.194;2022-12-05T07:41:25;44;39;
72793;PMS5003;63436;26.334;50.194;2022-12-05T07:43:49;39;35;
72793;PMS5003;63436;26.334;50.194;2022-12-05T07:46:14;41;40;
72793;PMS5003;63436;26.334;50.194;2022-12-05T07:48:40;37;36;
72793;PMS5003;63436;26.334;50.194;2022-12-05T07:51:05;43;41;
72793;PMS5003;63436;26.334;50.194;2022-12-05T07:53:30;36;36;
72793;PMS5003;63436;26.334;50.194;2022-12-05T07:55:57;41;38;
72793;PMS5003;63436;26.334;50.194;2022-12-05T07:58:21;37;35;
72793;PMS5003;63436;26.334;50.194;2022-12-05T08:00:46;44;38;
72793;PMS5003;63436;26.334;50.194;2022-12-05T08:03:12;37;34;
72793;PMS5003;63436;26.334;50.194;2022-12-05T08:05:37;39;39;
72793;PMS5003;63436;26.334;50.194;2022-12-05T08:08:02;36;33;
72793;PMS5003;63436;26.334;50.194;2022-12-05T08:10:28;37;35;
72793;PMS5003;63436;26.334;50.194;2022-12-05T08:12:53;39;36;
72793;PMS5003;63436;26.334;50.194;2022-12-05T08:15:18;37;36;
72793;PMS5003;63436;26.334;50.194;2022-12-05T08:17:44;30;30;
72793;PMS5003;63436;26.334;50.194;2022-12-05T08:20:10;37;32;
72793;PMS5003;63436;26.334;50.194;2022-12-05T08:22:34;30;29;
72793;PMS5003;63436;26.334;50.194;2022-12-05T08:25:00;29;28;
72793;PMS5003;63436;26.334;50.194;2022-12-05T08:27:25;28;28;
72793;PMS5003;63436;26.334;50.194;2022-12-05T08:29:50;28;28;
72793;PMS5003;63436;26.334;50.194;2022-12-05T08:32:15;32;30;
72793;PMS5003;63436;26.334;50.194;2022-12-05T08:34:40;31;31;
72793;PMS5003;63436;26.334;50.194;2022-12-05T08:37:06;35;31;
72793;PMS5003;63436;26.334;50.194;2022-12-05T08:39:31;30;29;
72793;PMS5003;63436;26.334;50.194;2022-12-05T08:41:56;34;32;
72793;PMS5003;63436;26.334;50.194;2022-12-05T08:44:22;35;33;
72793;PMS5003;63436;26.334;50.194;2022-12-05T08:46:48;34;29;
72793;PMS5003;63436;26.334;50.194;2022-12-05T08:49:13;31;31;
72793;PMS5003;63436;26.334;50.194;2022-12-05T08:51:38;30;29;
72793;PMS5003;63436;26.334;50.194;2022-12-05T08:54:04;30;30;
72793;PMS5003;63436;26.334;50.194;2022-12-05T08:56:30;32;32;
72793;PMS5003;63436;26.334;50.194;2022-12-05T08:58:55;32;31;
72793;PMS5003;63436;26.334;50.194;2022-12-05T09:01:20;31;30;
72793;PMS5003;63436;26.334;50.194;2022-12-05T09:03:46;33;31;
72793;PMS5003;63436;26.334;50.194;2022-12-05T09:06:12;31;30;
72793;PMS5003;63436;26.334;50.194;2022-12-05T09:08:38;36;35;
72793;PMS5003;63436;26.334;50.194;2022-12-05T09:11:04;35;33;
72793;PMS5003;63436;26.334;50.194;2022-12-05T09:13:28;36;33;
72793;PMS5003;63436;26.334;50.194;2022-12-05T09:15:54;32;32;
72793;PMS5003;63436;26.334;50.194;2022-12-05T09:18:19;34;32;
72793;PMS5003;63436;26.334;50.194;2022-12-05T09:20:45;34;34;
72793;PMS5003;63436;26.334;50.194;2022-12-05T09:23:11;32;32;
72793;PMS5003;63436;26.334;50.194;2022-12-05T09:25:36;30;29;
72793;PMS5003;63436;26.334;50.194;2022-12-05T09:28:01;34;31;
72793;PMS5003;63436;26.334;50.194;2022-12-05T09:30:27;38;35;
72793;PMS5003;63436;26.334;50.194;2022-12-05T09:32:53;35;32;
72793;PMS5003;63436;26.334;50.194;2022-12-05T09:35:18;36;33;
72793;PMS5003;63436;26.334;50.194;2022-12-05T09:37:44;36;35;
72793;PMS5003;63436;26.334;50.194;2022-12-05T09:40:13;39;37;
72793;PMS5003;63436;26.334;50.194;2022-12-05T09:42:41;39;36;
72793;PMS5003;63436;26.334;50.194;2022-12-05T09:45:09;37;34;
72793;PMS5003;63436;26.334;50.194;2022-12-05T09:47:30;41;38;
72793;PMS5003;63436;26.334;50.194;2022-12-05T09:49:50;38;36;
72793;PMS5003;63436;26.334;50.194;2022-12-05T09:52:18;40;33;
72793;PMS5003;63436;26.334;50.194;2022-12-05T09:54:41;36;35;
72793;PMS5003;63436;26.334;50.194;2022-12-05T09:57:07;42;39;
72793;PMS5003;63436;26.334;50.194;2022-12-05T09:59:32;40;39;
72793;PMS5003;63436;26.334;50.194;2022-12-05T10:01:59;44;44;
72793;PMS5003;63436;26.334;50.194;2022-12-05T10:04:30;40;40;
72793;PMS5003;63436;26.334;50.194;2022-12-05T10:06:51;34;33;
72793;PMS5003;63436;26.334;50.194;2022-12-05T10:09:20;45;40;
72793;PMS5003;63436;26.334;50.194;2022-12-05T10:11:42;41;41;
72793;PMS5003;63436;26.334;50.194;2022-12-05T10:16:31;44;40;
72793;PMS5003;63436;26.334;50.194;2022-12-05T10:18:57;42;40;
72793;PMS5003;63436;26.334;50.194;2022-12-05T10:21:22;42;39;
72793;PMS5003;63436;26.334;50.194;2022-12-05T10:23:50;36;36;
72793;PMS5003;63436;26.334;50.194;2022-12-05T10:26:13;39;39;
72793;PMS5003;63436;26.334;50.194;2022-12-05T10:28:38;44;43;
72793;PMS5003;63436;26.334;50.194;2022-12-05T10:31:04;46;40;
72793;PMS5003;63436;26.334;50.194;2022-12-05T10:33:29;44;42;
72793;PMS5003;63436;26.334;50.194;2022-12-05T10:35:53;41;41;
72793;PMS5003;63436;26.334;50.194;2022-12-05T10:38:21;41;41;
72793;PMS5003;63436;26.334;50.194;2022-12-05T10:40:44;44;43;
72793;PMS5003;63436;26.334;50.194;2022-12-05T10:43:11;48;47;
72793;PMS5003;63436;26.334;50.194;2022-12-05T10:45:36;45;42;
72793;PMS5003;63436;26.334;50.194;2022-12-05T10:48:00;44;43;
72793;PMS5003;63436;26.334;50.194;2022-12-05T10:50:27;39;39;
72793;PMS5003;63436;26.334;50.194;2022-12-05T10:52:51;45;45;
72793;PMS5003;63436;26.334;50.194;2022-12-05T10:55:17;48;46;
72793;PMS5003;63436;26.334;50.194;2022-12-05T10:57:43;44;44;
72793;PMS5003;63436;26.334;50.194;2022-12-05T11:00:09;46;44;
72793;PMS5003;63436;26.334;50.194;2022-12-05T11:02:33;44;44;
72793;PMS5003;63436;26.334;50.194;2022-12-05T11:04:58;50;44;
72793;PMS5003;63436;26.334;50.194;2022-12-05T11:07:25;46;44;
72793;PMS5003;63436;26.334;50.194;2022-12-05T11:09:48;48;48;
72793;PMS5003;63436;26.334;50.194;2022-12-05T11:12:15;44;43;
72793;PMS5003;63436;26.334;50.194;2022-12-05T11:14:39;45;43;
72793;PMS5003;63436;26.334;50.194;2022-12-05T11:17:04;51;49;
72793;PMS5003;63436;26.334;50.194;2022-12-05T11:19:30;51;48;
72793;PMS5003;63436;26.334;50.194;2022-12-05T11:21:55;50;47;
72793;PMS5003;63436;26.334;50.194;2022-12-05T11:24:23;49;47;
72793;PMS5003;63436;26.334;50.194;2022-12-05T11:26:46;51;47;
72793;PMS5003;63436;26.334;50.194;2022-12-05T11:31:37;49;47;
72793;PMS5003;63436;26.334;50.194;2022-12-05T11:34:08;44;43;
72793;PMS5003;63436;26.334;50.194;2022-12-05T11:36:30;52;50;
72793;PMS5003;63436;26.334;50.194;2022-12-05T11:38:54;49;48;
72793;PMS5003;63436;26.334;50.194;2022-12-05T11:41:24;49;45;
72793;PMS5003;63436;26.334;50.194;2022-12-05T11:43:48;51;49;
72793;PMS5003;63436;26.334;50.194;2022-12-05T11:46:12;52;49;
72793;PMS5003;63436;26.334;50.194;2022-12-05T11:48:44;49;46;
72793;PMS5003;63436;26.334;50.194;2022-12-05T11:51:06;47;43;
72793;PMS5003;63436;26.334;50.194;2022-12-05T11:55:52;48;48;
72793;PMS5003;63436;26.334;50.194;2022-12-05T12:00:45;55;53;
72793;PMS5003;63436;26.334;50.194;2022-12-05T12:05:36;51;45;
72793;PMS5003;63436;26.334;50.194;2022-12-05T12:08:00;54;53;
72793;PMS5003;63436;26.334;50.194;2022-12-05T12:10:25;44;44;
72793;PMS5003;63436;26.334;50.194;2022-12-05T12:12:52;52;50;
72793;PMS5003;63436;26.334;50.194;2022-12-05T12:15:22;48;48;
72793;PMS5003;63436;26.334;50.194;2022-12-05T12:17:42;49;49;
72793;PMS5003;63436;26.334;50.194;2022-12-05T12:20:12;52;49;
72793;PMS5003;63436;26.334;50.194;2022-12-05T12:22:36;54;52;
72793;PMS5003;63436;26.334;50.194;2022-12-05T12:25:01;51;48;
72793;PMS5003;63436;26.334;50.194;2022-12-05T12:27:25;47;47;
72793;PMS5003;63436;26.334;50.194;2022-12-05T12:29:51;51;47;
72793;PMS5003;63436;26.334;50.194;2022-12-05T12:32:16;58;54;
72793;PMS5003;63436;26.334;50.194;2022-12-05T12:34:42;51;49;
72793;PMS5003;63436;26.334;50.194;2022-12-05T12:37:11;62;58;
72793;PMS5003;63436;26.334;50.194;2022-12-05T12:39:32;58;55;
72793;PMS5003;63436;26.334;50.194;2022-12-05T12:41:58;53;52;
72793;PMS5003;63436;26.334;50.194;2022-12-05T12:44:24;51;51;
72793;PMS5003;63436;26.334;50.194;2022-12-05T12:46:46;56;53;
72793;PMS5003;63436;26.334;50.194;2022-12-05T12:49:17;60;53;
72793;PMS5003;63436;26.334;50.194;2022-12-05T12:51:37;52;48;
72793;PMS5003;63436;26.334;50.194;2022-12-05T12:56:29;52;51;
72793;PMS5003;63436;26.334;50.194;2022-12-05T12:58:53;56;52;
72793;PMS5003;63436;26.334;50.194;2022-12-05T13:01:21;51;49;
72793;PMS5003;63436;26.334;50.194;2022-12-05T13:03:45;52;51;
72793;PMS5003;63436;26.334;50.194;2022-12-05T13:06:11;49;48;
72793;PMS5003;63436;26.334;50.194;2022-12-05T13:08:35;54;51;
72793;PMS5003;63436;26.334;50.194;2022-12-05T13:10:59;54;50;
72793;PMS5003;63436;26.334;50.194;2022-12-05T13:13:26;54;50;
72793;PMS5003;63436;26.334;50.194;2022-12-05T13:15:51;50;47;
72793;PMS5003;63436;26.334;50.194;2022-12-05T13:18:17;51;49;
72793;PMS5003;63436;26.334;50.194;2022-12-05T13:20:42;45;44;
72793;PMS5003;63436;26.334;50.194;2022-12-05T13:23:10;50;49;
72793;PMS5003;63436;26.334;50.194;2022-12-05T13:25:33;47;45;
72793;PMS5003;63436;26.334;50.194;2022-12-05T13:27:59;49;49;
72793;PMS5003;63436;26.334;50.194;2022-12-05T13:30:23;49;47;
72793;PMS5003;63436;26.334;50.194;2022-12-05T13:32:53;50;46;
72793;PMS5003;63436;26.334;50.194;2022-12-05T13:35:15;60;55;
72793;PMS5003;63436;26.334;50.194;2022-12-05T13:37:43;49;49;
72793;PMS5003;63436;26.334;50.194;2022-12-05T13:40:08;51;50;
72793;PMS5003;63436;26.334;50.194;2022-12-05T13:42:31;55;51;
72793;PMS5003;63436;26.334;50.194;2022-12-05T13:44:56;47;47;
72793;PMS5003;63436;26.334;50.194;2022-12-05T13:47:25;48;47;
72793;PMS5003;63436;26.334;50.194;2022-12-05T13:49:48;53;51;
72793;PMS5003;63436;26.334;50.194;2022-12-05T13:52:13;46;46;
72793;PMS5003;63436;26.334;50.194;2022-12-05T13:54:40;49;48;
72793;PMS5003;63436;26.334;50.194;2022-12-05T13:57:03;49;48;
72793;PMS5003;63436;26.334;50.194;2022-12-05T14:01:53;49;47;
72793;PMS5003;63436;26.334;50.194;2022-12-05T14:04:42;48;45;
72793;PMS5003;63436;26.334;50.194;2022-12-05T14:11:35;56;52;
72793;PMS5003;63436;26.334;50.194;2022-12-05T14:14:01;48;47;
72793;PMS5003;63436;26.334;50.194;2022-12-05T14:18:52;44;44;
72793;PMS5003;63436;26.334;50.194;2022-12-05T14:21:18;54;50;
72793;PMS5003;63436;26.334;50.194;2022-12-05T14:23:46;49;47;
72793;PMS5003;63436;26.334;50.194;2022-12-05T14:26:12;47;45;
72793;PMS5003;63436;26.334;50.194;2022-12-05T14:28:36;49;48;
72793;PMS5003;63436;26.334;50.194;2022-12-05T14:31:02;47;47;
72793;PMS5003;63436;26.334;50.194;2022-12-05T14:33:24;53;52;
72793;PMS5003;63436;26.334;50.194;2022-12-05T14:35:50;54;50;
72793;PMS5003;63436;26.334;50.194;2022-12-05T14:38:19;50;49;
72793;PMS5003;63436;26.334;50.194;2022-12-05T14:40:41;48;47;
72793;PMS5003;63436;26.334;50.194;2022-12-05T14:43:06;48;44;
72793;PMS5003;63436;26.334;50.194;2022-12-05T14:45:32;51;50;
72793;PMS5003;63436;26.334;50.194;2022-12-05T14:47:57;53;48;
72793;PMS5003;63436;26.334;50.194;2022-12-05T14:50:22;54;51;
72793;PMS5003;63436;26.334;50.194;2022-12-05T14:55:12;51;49;
72793;PMS5003;63436;26.334;50.194;2022-12-05T14:57:42;55;54;
72793;PMS5003;63436;26.334;50.194;2022-12-05T15:00:04;50;49;
72793;PMS5003;63436;26.334;50.194;2022-12-05T15:02:29;52;51;
72793;PMS5003;63436;26.334;50.194;2022-12-05T15:04:55;55;53;
72793;PMS5003;63436;26.334;50.194;2022-12-05T15:07:20;56;54;
72793;PMS5003;63436;26.334;50.194;2022-12-05T15:09:52;50;49;
72793;PMS5003;63436;26.334;50.194;2022-12-05T15:12:12;58;55;
72793;PMS5003;63436;26.334;50.194;2022-12-05T15:14:38;58;57;
72793;PMS5003;63436;26.334;50.194;2022-12-05T15:17:01;55;53;
72793;PMS5003;63436;26.334;50.194;2022-12-05T15:19:28;53;50;
72793;PMS5003;63436;26.334;50.194;2022-12-05T15:21:53;55;53;
72793;PMS5003;63436;26.334;50.194;2022-12-05T15:24:18;54;52;
72793;PMS5003;63436;26.334;50.194;2022-12-05T15:26:44;55;51;
72793;PMS5003;63436;26.334;50.194;2022-12-05T15:29:09;52;51;
72793;PMS5003;63436;26.334;50.194;2022-12-05T15:31:35;49;49;
72793;PMS5003;63436;26.334;50.194;2022-12-05T15:34:01;55;52;
72793;PMS5003;63436;26.334;50.194;2022-12-05T15:36:26;51;50;
72793;PMS5003;63436;26.334;50.194;2022-12-05T15:38:51;48;48;
72793;PMS5003;63436;26.334;50.194;2022-12-05T15:41:17;52;49;
72793;PMS5003;63436;26.334;50.194;2022-12-05T15:43:42;50;48;
72793;PMS5003;63436;26.334;50.194;2022-12-05T15:46:13;52;51;
72793;PMS5003;63436;26.334;50.194;2022-12-05T15:48:33;54;50;
72793;PMS5003;63436;26.334;50.194;2022-12-05T15:50:58;63;57;
72793;PMS5003;63436;26.334;50.194;2022-12-05T15:53:26;53;49;
72793;PMS5003;63436;26.334;50.194;2022-12-05T15:55:50;49;47;
72793;PMS5003;63436;26.334;50.194;2022-12-05T15:58:17;52;49;
72793;PMS5003;63436;26.334;50.194;2022-12-05T16:00:41;52;49;
72793;PMS5003;63436;26.334;50.194;2022-12-05T16:03:07;55;55;
72793;PMS5003;63436;26.334;50.194;2022-12-05T16:05:32;57;53;
72793;PMS5003;63436;26.334;50.194;2022-12-05T16:07:57;48;46;
72793;PMS5003;63436;26.334;50.194;2022-12-05T16:10:23;55;51;
72793;PMS5003;63436;26.334;50.194;2022-12-05T16:12:48;55;52;
72793;PMS5003;63436;26.334;50.194;2022-12-05T16:15:13;51;50;
72793;PMS5003;63436;26.334;50.194;2022-12-05T16:17:40;52;52;
72793;PMS5003;63436;26.334;50.194;2022-12-05T16:20:10;49;48;